Crockett, California
Current Conditions -  °F | °C
As of 11:11 PM on Saturday 22 Nov 2014 (Local Time) from KCCR Reporting Station
Haze Haze  
Wind Chill: 51°   Ceiling: Unl
Heat Index: 51°   Visibility: 2mi
Dew Point: 50°   Wind: 0mph
Humidity: 96%   Direction: NA
Pressure: 30.26"   Gusts: NA
Location:  38.05°N, 122.22°W
Report Text: KCCR 230711Z 00000KT 2SM BR FEW006 11/10 A3026 RMK AO2 T01060100
Loading
Personal Weather Stations






























Interactive Weather Map New forecast layout! Learn more

10-Day Weather Forecast

Advertisements
Track Severe Weather on mobile